Terminal Aerodrome Forecast
Issued by NWS

Home | Current Version | Previous Version | Text Only | Print | Product List | Glossary Off
Versions: 1 2 3 4 5 6 7 8 9 10 11 12 13 14 15 16

000
FTUS43 KICT 152342
TAFSLN
TAF
KSLN 152342Z 1600/1624 16013KT P6SM VCTS SCT050CB BKN090
     FM160200 15010KT P6SM BKN150
     FM160900 16009KT P6SM VCTS BKN008CB
     FM161400 17008KT P6SM VCTS BKN015CB
     FM161700 18010KT P6SM SCT050 SCT150
     FM162200 26009KT P6SM VCTS BKN050CB=

USA.gov is the U.S. government's official web portal to all federal, state and local government web resources and services.